Houn Maru — JG5489 — position and weather

sailwx.info

Track history (hours):
 
Tides and Currents Weather Stations Pressure Air Temp Water Temp Dewpoint Dewpoint Depression Visibility Wind Speed Wind Dir Waves Ship Positions

Houn Maru

Last reported at 2017-Sep-24 15:30 UTC. Time now 2017-Sep-24 15:39 UTC.
Position N 34°30' E 135°07'.

Length 91 m; draft 6 m.

Type: Tanker. MMSI: 431101172.

Date/timePositionNaut miles runAvg speedWind from/ knotsBaromVisibWave heightAir tempDewpointWater temp
2017-Sep-24 15:30N 34°30' E 135°07'510.9
2017-Sep-24 15:00N 34°34' E 135°04'5 9.1
2017-Sep-24 14:28N 34°37' E 134°59'  
2017-Sep-22 01:58N 34°41' E 135°12'0 0.0
2017-Sep-22 01:28N 34°41' E 135°12'0 0.0
2017-Sep-22 00:58N 34°41' E 135°12'0 0.0
2017-Sep-22 00:28N 34°41' E 135°12'0 0.0
2017-Sep-21 23:58N 34°41' E 135°12'0 0.0
2017-Sep-21 23:22N 34°41' E 135°12'0 0.0
2017-Sep-21 22:58N 34°41' E 135°12'0 0.0
2017-Sep-21 22:28N 34°41' E 135°12'0 0.0
2017-Sep-21 21:52N 34°41' E 135°12'0 0.0
2017-Sep-21 21:22N 34°41' E 135°12'0 0.0
2017-Sep-21 20:58N 34°41' E 135°12'0 0.0
2017-Sep-21 20:28N 34°41' E 135°12'0 0.0
2017-Sep-21 19:58N 34°41' E 135°12'0 0.0
2017-Sep-21 19:28N 34°41' E 135°12'0 0.0
2017-Sep-21 18:58N 34°41' E 135°12'0 0.0
2017-Sep-21 18:28N 34°41' E 135°12'0 0.0
2017-Sep-21 17:58N 34°41' E 135°12'0 0.0
2017-Sep-21 17:28N 34°41' E 135°12'0 0.0
2017-Sep-21 16:58N 34°41' E 135°12'0 0.0
2017-Sep-21 16:10N 34°41' E 135°12'0 0.0
2017-Sep-21 15:58N 34°41' E 135°12'0 0.0
2017-Sep-21 15:28N 34°41' E 135°12'0 0.0
2017-Sep-21 14:58N 34°41' E 135°12'0 0.0
2017-Sep-21 14:28N 34°41' E 135°12'0 0.0
2017-Sep-21 13:58N 34°41' E 135°12'0 0.0
2017-Sep-21 13:28N 34°41' E 135°12'0 0.0
2017-Sep-21 12:58N 34°41' E 135°12'0 0.0
2017-Sep-21 12:28N 34°41' E 135°12'0 0.0
2017-Sep-21 11:58N 34°41' E 135°12'0 0.0
2017-Sep-21 11:28N 34°41' E 135°12'0 0.0
2017-Sep-21 10:40N 34°41' E 135°12'0 0.0
2017-Sep-21 10:28N 34°41' E 135°12'0 0.0
2017-Sep-21 09:58N 34°41' E 135°12'0 0.0
2017-Sep-21 09:22N 34°41' E 135°12'0 0.0
2017-Sep-21 08:58N 34°41' E 135°12'0 0.0
2017-Sep-21 08:28N 34°41' E 135°12'0 0.0
2017-Sep-21 07:58N 34°41' E 135°12'0 0.0
2017-Sep-21 07:22N 34°41' E 135°12'1 3.2
2017-Sep-21 07:00N 34°40' E 135°12'611.5
2017-Sep-21 06:30N 34°34' E 135°11'511.0
2017-Sep-21 06:00N 34°29' E 135°11'510.8
2017-Sep-21 05:31N 34°23' E 135°12'1 0.2
2017-Sep-20 23:49N 34°24' E 135°13'2 8.0
2017-Sep-20 23:30N 34°25' E 135°11'510.9
2017-Sep-20 23:00N 34°29' E 135°16'5 9.2
2017-Sep-20 22:30N 34°31' E 135°21'0 0.0
2017-Sep-20 21:18N 34°31' E 135°21'0 0.0
2017-Sep-20 20:54N 34°31' E 135°21'0 0.0
2017-Sep-20 20:30N 34°31' E 135°21'0 0.1
2017-Sep-20 20:00N 34°31' E 135°21'0 0.0
2017-Sep-20 19:30N 34°31' E 135°21'0 0.0
2017-Sep-20 19:00N 34°31' E 135°21'0 0.0
2017-Sep-20 18:30N 34°31' E 135°21'0 0.0
2017-Sep-20 17:54N 34°31' E 135°21'0 0.0
2017-Sep-20 17:30N 34°31' E 135°21'0 0.0
2017-Sep-20 17:00N 34°31' E 135°21'0 0.0
2017-Sep-20 16:30N 34°31' E 135°21'0 0.0
2017-Sep-20 15:54N 34°31' E 135°21'0 0.0
2017-Sep-20 15:18N 34°31' E 135°21'0 0.0
2017-Sep-20 15:00N 34°31' E 135°21'0 0.0
2017-Sep-20 13:54N 34°31' E 135°21'0 0.0
2017-Sep-20 13:24N 34°31' E 135°21'0 0.1
2017-Sep-20 12:54N 34°31' E 135°21'0 0.1
2017-Sep-20 12:18N 34°31' E 135°21'0 0.0
2017-Sep-20 12:00N 34°31' E 135°21'0 0.0
2017-Sep-20 11:30N 34°31' E 135°21'0 0.0
2017-Sep-20 11:00N 34°31' E 135°21'0 0.0
2017-Sep-20 10:24N 34°31' E 135°21'0 0.0
2017-Sep-20 10:00N 34°31' E 135°21'0 0.0
2017-Sep-20 09:24N 34°31' E 135°21'0 0.0
2017-Sep-20 09:00N 34°31' E 135°21'0 0.0
2017-Sep-20 08:30N 34°31' E 135°21'0 0.6
2017-Sep-20 08:01N 34°31' E 135°21'4 7.4
2017-Sep-20 07:30N 34°33' E 135°25'0 0.0
2017-Sep-19 22:40N 34°33' E 135°26'0 0.1
2017-Sep-19 22:30N 34°33' E 135°26'3 5.6
2017-Sep-19 22:00N 34°32' E 135°22'2 2.9
2017-Sep-19 21:24N 34°31' E 135°21'0 0.0
2017-Sep-19 21:00N 34°31' E 135°21'0 0.0
2017-Sep-19 20:24N 34°31' E 135°21'0 0.0
2017-Sep-19 20:00N 34°31' E 135°21'0 0.0
2017-Sep-19 19:30N 34°31' E 135°21'0 0.0
2017-Sep-19 19:00N 34°31' E 135°21'0 0.0
2017-Sep-19 18:30N 34°31' E 135°21'0 0.1
2017-Sep-19 18:00N 34°31' E 135°21'0 0.0
2017-Sep-19 17:30N 34°31' E 135°21'0 0.0
2017-Sep-19 16:54N 34°31' E 135°21'0 0.0
2017-Sep-19 16:24N 34°31' E 135°21'0 0.1
2017-Sep-19 16:00N 34°31' E 135°21'0 0.0
2017-Sep-19 15:30N 34°31' E 135°21'0 0.0
2017-Sep-19 15:00N 34°31' E 135°21'0 0.0
2017-Sep-19 14:30N 34°31' E 135°21'0 0.0
2017-Sep-19 14:00N 34°31' E 135°21'0 0.0
2017-Sep-19 13:24N 34°31' E 135°21'0 0.0
2017-Sep-19 13:00N 34°31' E 135°21'0 0.0
2017-Sep-19 12:06N 34°31' E 135°21'0 0.1
2017-Sep-19 12:00N 34°31' E 135°21'0 0.0
2017-Sep-19 11:18N 34°31' E 135°21'2 6.9
2017-Sep-19 11:00N 34°30' E 135°19'612.4
2017-Sep-19 10:31N 34°27' E 135°12'2 3.8
2017-Sep-19 09:54N 34°25' E 135°14'0 0.0
2017-Sep-19 04:50N 34°25' E 135°14'0 1.3
2017-Sep-19 04:30N 34°25' E 135°14'2 1.4
2017-Sep-19 03:14N 34°23' E 135°13'0 0.0
2017-Sep-19 02:56N 34°23' E 135°13'0 0.0
2017-Sep-19 02:29N 34°23' E 135°13'0 0.0
2017-Sep-19 01:59N 34°23' E 135°13'0 0.0
2017-Sep-19 00:20N 34°23' E 135°13'0 0.1
2017-Sep-18 23:50N 34°23' E 135°13'0 0.1
2017-Sep-18 23:29N 34°23' E 135°13'0 0.0
2017-Sep-18 22:59N 34°23' E 135°13'0 0.0
2017-Sep-18 22:29N 34°23' E 135°13'0 0.0
2017-Sep-18 21:59N 34°23' E 135°13'0 0.0
2017-Sep-18 21:29N 34°23' E 135°13'0 0.0
2017-Sep-18 20:56N 34°23' E 135°13'0 0.0
2017-Sep-18 20:29N 34°23' E 135°13'0 0.0
2017-Sep-18 19:56N 34°23' E 135°13'0 0.0
2017-Sep-18 19:26N 34°23' E 135°13'0 0.0
2017-Sep-18 18:59N 34°23' E 135°13'0 0.0
2017-Sep-18 18:29N 34°23' E 135°13'0 0.0
2017-Sep-18 17:59N 34°23' E 135°13'0 0.0
2017-Sep-18 17:20N 34°23' E 135°13'0 0.0
2017-Sep-18 16:59N 34°23' E 135°13'0 0.0
2017-Sep-18 16:29N 34°23' E 135°13'0 0.0
2017-Sep-18 15:38N 34°23' E 135°13'0 0.0
2017-Sep-18 15:26N 34°23' E 135°13'0 1.1
2017-Sep-18 15:00N 34°24' E 135°12'511.0
2017-Sep-18 14:30N 34°28' E 135°08'611.5
2017-Sep-18 14:00N 34°33' E 135°04'510.9
2017-Sep-18 13:30N 34°37' E 135°00'2 0.1
2017-Sep-16 23:49N 34°37' E 134°58'411.8
2017-Sep-16 23:30N 34°37' E 135°02'5 9.4
2017-Sep-16 23:00N 34°38' E 135°08'0 0.2
2017-Sep-16 22:26N 34°37' E 135°08'0 0.0
2017-Sep-16 21:56N 34°37' E 135°08'0 0.0
2017-Sep-16 21:30N 34°37' E 135°08'0 0.0
2017-Sep-16 20:58N 34°37' E 135°08'0 0.0
2017-Sep-16 20:26N 34°37' E 135°08'0 0.0
2017-Sep-16 20:00N 34°37' E 135°08'0 0.0
2017-Sep-16 19:26N 34°37' E 135°08'0 0.0
2017-Sep-16 18:56N 34°37' E 135°08'0 0.0
2017-Sep-16 18:20N 34°37' E 135°08'0 0.0
2017-Sep-16 17:50N 34°37' E 135°08'0 0.0
2017-Sep-16 17:27N 34°37' E 135°08'0 0.0
2017-Sep-16 16:58N 34°37' E 135°08'0 0.0
2017-Sep-16 16:26N 34°37' E 135°08'0 0.1
2017-Sep-16 15:56N 34°37' E 135°08'0 0.1
2017-Sep-16 15:27N 34°37' E 135°08'0 0.0
2017-Sep-16 14:44N 34°37' E 135°08'0 0.0
2017-Sep-16 14:28N 34°37' E 135°08'0 0.1
2017-Sep-16 14:00N 34°37' E 135°08'0 0.1
2017-Sep-16 13:30N 34°37' E 135°08'0 0.0
2017-Sep-16 12:52N 34°37' E 135°08'0 0.0
2017-Sep-16 12:26N 34°37' E 135°08'0 0.0
2017-Sep-16 11:56N 34°37' E 135°08'0 0.0
2017-Sep-16 11:26N 34°37' E 135°08'0 0.0
2017-Sep-16 10:56N 34°37' E 135°08'0 0.0
2017-Sep-16 10:26N 34°37' E 135°08'0 0.0
2017-Sep-16 09:56N 34°37' E 135°08'0 0.4
2017-Sep-16 09:30N 34°38' E 135°08'4 8.4
2017-Sep-16 09:00N 34°40' E 135°12'1 1.2
2017-Sep-16 08:28N 34°41' E 135°12'0 0.0
2017-Sep-16 07:58N 34°41' E 135°12'0 0.0
2017-Sep-16 07:22N 34°41' E 135°12'0 0.0
2017-Sep-16 06:52N 34°41' E 135°12'0 0.0
2017-Sep-16 06:28N 34°41' E 135°12'0 0.0
2017-Sep-16 05:58N 34°41' E 135°12'0 0.0
2017-Sep-16 05:16N 34°41' E 135°12'0 0.0
2017-Sep-16 04:58N 34°41' E 135°12'0 0.0
2017-Sep-16 04:28N 34°41' E 135°12'0 0.0
2017-Sep-16 03:52N 34°41' E 135°12'0 0.0
2017-Sep-16 03:28N 34°41' E 135°12'0 0.0
2017-Sep-16 02:40N 34°41' E 135°12'0 0.0
2017-Sep-16 02:28N 34°41' E 135°12'0 0.0
2017-Sep-16 01:58N 34°41' E 135°12'0 0.0
2017-Sep-16 01:28N 34°41' E 135°12'0 0.0
2017-Sep-16 00:58N 34°41' E 135°12'0 0.0
2017-Sep-16 00:28N 34°41' E 135°12'0 0.0
2017-Sep-15 23:58N 34°41' E 135°12'0 0.0
2017-Sep-15 23:28N 34°41' E 135°12'0 0.0
2017-Sep-15 22:52N 34°41' E 135°12'0 0.0
2017-Sep-15 22:28N 34°41' E 135°12'0 0.0
2017-Sep-15 21:58N 34°41' E 135°12'0 0.0
2017-Sep-15 21:28N 34°41' E 135°12'0 0.0
2017-Sep-15 20:58N 34°41' E 135°12'0 0.0
2017-Sep-15 20:28N 34°41' E 135°12'0 0.0
2017-Sep-15 19:58N 34°41' E 135°12'0 0.0
2017-Sep-15 19:28N 34°41' E 135°12'0 0.0
2017-Sep-15 18:58N 34°41' E 135°12'0 0.0
2017-Sep-15 18:28N 34°41' E 135°12'0 0.0
2017-Sep-15 17:58N 34°41' E 135°12'0 0.0
2017-Sep-15 17:28N 34°41' E 135°12'0 0.0
2017-Sep-15 16:58N 34°41' E 135°12'0 0.0
2017-Sep-15 16:28N 34°41' E 135°12'0 0.0
2017-Sep-15 15:58N 34°41' E 135°12'0 0.0
2017-Sep-15 15:28N 34°41' E 135°12'0 0.0
2017-Sep-15 14:58N 34°41' E 135°12'0 0.0
2017-Sep-15 14:28N 34°41' E 135°12'0 0.0
2017-Sep-15 13:58N 34°41' E 135°12'0 0.0
2017-Sep-15 13:28N 34°41' E 135°12'0 0.0
2017-Sep-15 12:58N 34°41' E 135°12'0 0.0
2017-Sep-15 12:28N 34°41' E 135°12'0 0.0
2017-Sep-15 11:58N 34°41' E 135°12'0 0.0
2017-Sep-15 11:28N 34°41' E 135°12'0 0.0
2017-Sep-15 10:58N 34°41' E 135°12'0 0.0
2017-Sep-15 10:28N 34°41' E 135°12'0 0.0
2017-Sep-15 09:52N 34°41' E 135°12'0 0.0
2017-Sep-15 09:28N 34°41' E 135°12'0 0.0
2017-Sep-15 08:58N 34°41' E 135°12'0 0.0
2017-Sep-15 08:28N 34°41' E 135°12'0 0.0
2017-Sep-15 07:52N 34°41' E 135°12'0 0.0
2017-Sep-15 07:28N 34°41' E 135°12'0 1.1
2017-Sep-15 07:00N 34°41' E 135°12'511.0
2017-Sep-15 06:30N 34°35' E 135°11'612.2
2017-Sep-15 06:00N 34°29' E 135°11'611.4
2017-Sep-15 05:30N 34°24' E 135°12'2 0.4
2017-Sep-15 00:14N 34°25' E 135°14'0 1.2
2017-Sep-14 23:59N 34°25' E 135°14'3 6.1
2017-Sep-14 23:30N 34°25' E 135°11'611.5
2017-Sep-14 23:00N 34°29' E 135°16'5 9.2
2017-Sep-14 22:30N 34°31' E 135°21'0 0.3
2017-Sep-14 21:59N 34°31' E 135°21'0 0.0
2017-Sep-14 21:29N 34°31' E 135°21'0 0.0
2017-Sep-14 20:59N 34°31' E 135°21'0 0.0
2017-Sep-14 20:29N 34°31' E 135°21'0 0.0
2017-Sep-14 19:59N 34°31' E 135°21'0 0.0
2017-Sep-14 19:29N 34°31' E 135°21'0 0.0
2017-Sep-14 18:59N 34°31' E 135°21'0 0.0
2017-Sep-14 18:23N 34°31' E 135°21'0 0.0
2017-Sep-14 17:59N 34°31' E 135°21'0 0.1
2017-Sep-14 17:23N 34°31' E 135°21'0 0.1
2017-Sep-14 16:59N 34°31' E 135°21'0 0.0
2017-Sep-14 16:29N 34°31' E 135°21'0 0.0
2017-Sep-14 15:59N 34°31' E 135°21'  
Track history (hours):
 
Tides and Currents Weather Stations Pressure Air Temp Water Temp Dewpoint Dewpoint Depression Visibility Wind Speed Wind Dir Waves Ship Positions

Houn Maru

Last reported at 2017-Sep-24 15:30 UTC. Time now 2017-Sep-24 15:39 UTC.
Position N 34°30' E 135°07'.

Length 91 m; draft 6 m.

Type: Tanker. MMSI: 431101172.

Date/timePositionNaut miles runAvg speedWind from/ knotsBaromVisibWave heightAir tempDewpointWater temp
2017-Sep-24 15:30N 34°30' E 135°07'510.9
2017-Sep-24 15:00N 34°34' E 135°04'5 9.1
2017-Sep-24 14:28N 34°37' E 134°59'  
2017-Sep-22 01:58N 34°41' E 135°12'0 0.0
2017-Sep-22 01:28N 34°41' E 135°12'0 0.0
2017-Sep-22 00:58N 34°41' E 135°12'0 0.0
2017-Sep-22 00:28N 34°41' E 135°12'0 0.0
2017-Sep-21 23:58N 34°41' E 135°12'0 0.0
2017-Sep-21 23:22N 34°41' E 135°12'0 0.0
2017-Sep-21 22:58N 34°41' E 135°12'0 0.0
2017-Sep-21 22:28N 34°41' E 135°12'0 0.0
2017-Sep-21 21:52N 34°41' E 135°12'0 0.0
2017-Sep-21 21:22N 34°41' E 135°12'0 0.0
2017-Sep-21 20:58N 34°41' E 135°12'0 0.0
2017-Sep-21 20:28N 34°41' E 135°12'0 0.0
2017-Sep-21 19:58N 34°41' E 135°12'0 0.0
2017-Sep-21 19:28N 34°41' E 135°12'0 0.0
2017-Sep-21 18:58N 34°41' E 135°12'0 0.0
2017-Sep-21 18:28N 34°41' E 135°12'0 0.0
2017-Sep-21 17:58N 34°41' E 135°12'0 0.0
2017-Sep-21 17:28N 34°41' E 135°12'0 0.0
2017-Sep-21 16:58N 34°41' E 135°12'0 0.0
2017-Sep-21 16:10N 34°41' E 135°12'0 0.0
2017-Sep-21 15:58N 34°41' E 135°12'0 0.0
2017-Sep-21 15:28N 34°41' E 135°12'0 0.0
2017-Sep-21 14:58N 34°41' E 135°12'0 0.0
2017-Sep-21 14:28N 34°41' E 135°12'0 0.0
2017-Sep-21 13:58N 34°41' E 135°12'0 0.0
2017-Sep-21 13:28N 34°41' E 135°12'0 0.0
2017-Sep-21 12:58N 34°41' E 135°12'0 0.0
2017-Sep-21 12:28N 34°41' E 135°12'0 0.0
2017-Sep-21 11:58N 34°41' E 135°12'0 0.0
2017-Sep-21 11:28N 34°41' E 135°12'0 0.0
2017-Sep-21 10:40N 34°41' E 135°12'0 0.0
2017-Sep-21 10:28N 34°41' E 135°12'0 0.0
2017-Sep-21 09:58N 34°41' E 135°12'0 0.0
2017-Sep-21 09:22N 34°41' E 135°12'0 0.0
2017-Sep-21 08:58N 34°41' E 135°12'0 0.0
2017-Sep-21 08:28N 34°41' E 135°12'0 0.0
2017-Sep-21 07:58N 34°41' E 135°12'0 0.0
2017-Sep-21 07:22N 34°41' E 135°12'1 3.2
2017-Sep-21 07:00N 34°40' E 135°12'611.5
2017-Sep-21 06:30N 34°34' E 135°11'511.0
2017-Sep-21 06:00N 34°29' E 135°11'510.8
2017-Sep-21 05:31N 34°23' E 135°12'1 0.2
2017-Sep-20 23:49N 34°24' E 135°13'2 8.0
2017-Sep-20 23:30N 34°25' E 135°11'510.9
2017-Sep-20 23:00N 34°29' E 135°16'5 9.2
2017-Sep-20 22:30N 34°31' E 135°21'0 0.0
2017-Sep-20 21:18N 34°31' E 135°21'0 0.0
2017-Sep-20 20:54N 34°31' E 135°21'0 0.0
2017-Sep-20 20:30N 34°31' E 135°21'0 0.1
2017-Sep-20 20:00N 34°31' E 135°21'0 0.0
2017-Sep-20 19:30N 34°31' E 135°21'0 0.0
2017-Sep-20 19:00N 34°31' E 135°21'0 0.0
2017-Sep-20 18:30N 34°31' E 135°21'0 0.0
2017-Sep-20 17:54N 34°31' E 135°21'0 0.0
2017-Sep-20 17:30N 34°31' E 135°21'0 0.0
2017-Sep-20 17:00N 34°31' E 135°21'0 0.0
2017-Sep-20 16:30N 34°31' E 135°21'0 0.0
2017-Sep-20 15:54N 34°31' E 135°21'0 0.0
2017-Sep-20 15:18N 34°31' E 135°21'0 0.0
2017-Sep-20 15:00N 34°31' E 135°21'0 0.0
2017-Sep-20 13:54N 34°31' E 135°21'0 0.0
2017-Sep-20 13:24N 34°31' E 135°21'0 0.1
2017-Sep-20 12:54N 34°31' E 135°21'0 0.1
2017-Sep-20 12:18N 34°31' E 135°21'0 0.0
2017-Sep-20 12:00N 34°31' E 135°21'0 0.0
2017-Sep-20 11:30N 34°31' E 135°21'0 0.0
2017-Sep-20 11:00N 34°31' E 135°21'0 0.0
2017-Sep-20 10:24N 34°31' E 135°21'0 0.0
2017-Sep-20 10:00N 34°31' E 135°21'0 0.0
2017-Sep-20 09:24N 34°31' E 135°21'0 0.0
2017-Sep-20 09:00N 34°31' E 135°21'0 0.0
2017-Sep-20 08:30N 34°31' E 135°21'0 0.6
2017-Sep-20 08:01N 34°31' E 135°21'4 7.4
2017-Sep-20 07:30N 34°33' E 135°25'0 0.0
2017-Sep-19 22:40N 34°33' E 135°26'0 0.1
2017-Sep-19 22:30N 34°33' E 135°26'3 5.6
2017-Sep-19 22:00N 34°32' E 135°22'2 2.9
2017-Sep-19 21:24N 34°31' E 135°21'0 0.0
2017-Sep-19 21:00N 34°31' E 135°21'0 0.0
2017-Sep-19 20:24N 34°31' E 135°21'0 0.0
2017-Sep-19 20:00N 34°31' E 135°21'0 0.0
2017-Sep-19 19:30N 34°31' E 135°21'0 0.0
2017-Sep-19 19:00N 34°31' E 135°21'0 0.0
2017-Sep-19 18:30N 34°31' E 135°21'0 0.1
2017-Sep-19 18:00N 34°31' E 135°21'0 0.0
2017-Sep-19 17:30N 34°31' E 135°21'0 0.0
2017-Sep-19 16:54N 34°31' E 135°21'0 0.0
2017-Sep-19 16:24N 34°31' E 135°21'0 0.1
2017-Sep-19 16:00N 34°31' E 135°21'0 0.0
2017-Sep-19 15:30N 34°31' E 135°21'0 0.0
2017-Sep-19 15:00N 34°31' E 135°21'0 0.0
2017-Sep-19 14:30N 34°31' E 135°21'0 0.0
2017-Sep-19 14:00N 34°31' E 135°21'0 0.0
2017-Sep-19 13:24N 34°31' E 135°21'0 0.0
2017-Sep-19 13:00N 34°31' E 135°21'0 0.0
2017-Sep-19 12:06N 34°31' E 135°21'0 0.1
2017-Sep-19 12:00N 34°31' E 135°21'0 0.0
2017-Sep-19 11:18N 34°31' E 135°21'2 6.9
2017-Sep-19 11:00N 34°30' E 135°19'612.4
2017-Sep-19 10:31N 34°27' E 135°12'2 3.8
2017-Sep-19 09:54N 34°25' E 135°14'0 0.0
2017-Sep-19 04:50N 34°25' E 135°14'0 1.3
2017-Sep-19 04:30N 34°25' E 135°14'2 1.4
2017-Sep-19 03:14N 34°23' E 135°13'0 0.0
2017-Sep-19 02:56N 34°23' E 135°13'0 0.0
2017-Sep-19 02:29N 34°23' E 135°13'0 0.0
2017-Sep-19 01:59N 34°23' E 135°13'0 0.0
2017-Sep-19 00:20N 34°23' E 135°13'0 0.1
2017-Sep-18 23:50N 34°23' E 135°13'0 0.1
2017-Sep-18 23:29N 34°23' E 135°13'0 0.0
2017-Sep-18 22:59N 34°23' E 135°13'0 0.0
2017-Sep-18 22:29N 34°23' E 135°13'0 0.0
2017-Sep-18 21:59N 34°23' E 135°13'0 0.0
2017-Sep-18 21:29N 34°23' E 135°13'0 0.0
2017-Sep-18 20:56N 34°23' E 135°13'0 0.0
2017-Sep-18 20:29N 34°23' E 135°13'0 0.0
2017-Sep-18 19:56N 34°23' E 135°13'0 0.0
2017-Sep-18 19:26N 34°23' E 135°13'0 0.0
2017-Sep-18 18:59N 34°23' E 135°13'0 0.0
2017-Sep-18 18:29N 34°23' E 135°13'0 0.0
2017-Sep-18 17:59N 34°23' E 135°13'0 0.0
2017-Sep-18 17:20N 34°23' E 135°13'0 0.0
2017-Sep-18 16:59N 34°23' E 135°13'0 0.0
2017-Sep-18 16:29N 34°23' E 135°13'0 0.0
2017-Sep-18 15:38N 34°23' E 135°13'0 0.0
2017-Sep-18 15:26N 34°23' E 135°13'0 1.1
2017-Sep-18 15:00N 34°24' E 135°12'511.0
2017-Sep-18 14:30N 34°28' E 135°08'611.5
2017-Sep-18 14:00N 34°33' E 135°04'510.9
2017-Sep-18 13:30N 34°37' E 135°00'2 0.1
2017-Sep-16 23:49N 34°37' E 134°58'411.8
2017-Sep-16 23:30N 34°37' E 135°02'5 9.4
2017-Sep-16 23:00N 34°38' E 135°08'0 0.2
2017-Sep-16 22:26N 34°37' E 135°08'0 0.0
2017-Sep-16 21:56N 34°37' E 135°08'0 0.0
2017-Sep-16 21:30N 34°37' E 135°08'0 0.0
2017-Sep-16 20:58N 34°37' E 135°08'0 0.0
2017-Sep-16 20:26N 34°37' E 135°08'0 0.0
2017-Sep-16 20:00N 34°37' E 135°08'0 0.0
2017-Sep-16 19:26N 34°37' E 135°08'0 0.0
2017-Sep-16 18:56N 34°37' E 135°08'0 0.0
2017-Sep-16 18:20N 34°37' E 135°08'0 0.0
2017-Sep-16 17:50N 34°37' E 135°08'0 0.0
2017-Sep-16 17:27N 34°37' E 135°08'0 0.0
2017-Sep-16 16:58N 34°37' E 135°08'0 0.0
2017-Sep-16 16:26N 34°37' E 135°08'0 0.1
2017-Sep-16 15:56N 34°37' E 135°08'0 0.1
2017-Sep-16 15:27N 34°37' E 135°08'0 0.0
2017-Sep-16 14:44N 34°37' E 135°08'0 0.0
2017-Sep-16 14:28N 34°37' E 135°08'0 0.1
2017-Sep-16 14:00N 34°37' E 135°08'0 0.1
2017-Sep-16 13:30N 34°37' E 135°08'0 0.0
2017-Sep-16 12:52N 34°37' E 135°08'0 0.0
2017-Sep-16 12:26N 34°37' E 135°08'0 0.0
2017-Sep-16 11:56N 34°37' E 135°08'0 0.0
2017-Sep-16 11:26N 34°37' E 135°08'0 0.0
2017-Sep-16 10:56N 34°37' E 135°08'0 0.0
2017-Sep-16 10:26N 34°37' E 135°08'0 0.0
2017-Sep-16 09:56N 34°37' E 135°08'0 0.4
2017-Sep-16 09:30N 34°38' E 135°08'4 8.4
2017-Sep-16 09:00N 34°40' E 135°12'1 1.2
2017-Sep-16 08:28N 34°41' E 135°12'0 0.0
2017-Sep-16 07:58N 34°41' E 135°12'0 0.0
2017-Sep-16 07:22N 34°41' E 135°12'0 0.0
2017-Sep-16 06:52N 34°41' E 135°12'0 0.0
2017-Sep-16 06:28N 34°41' E 135°12'0 0.0
2017-Sep-16 05:58N 34°41' E 135°12'0 0.0
2017-Sep-16 05:16N 34°41' E 135°12'0 0.0
2017-Sep-16 04:58N 34°41' E 135°12'0 0.0
2017-Sep-16 04:28N 34°41' E 135°12'0 0.0
2017-Sep-16 03:52N 34°41' E 135°12'0 0.0
2017-Sep-16 03:28N 34°41' E 135°12'0 0.0
2017-Sep-16 02:40N 34°41' E 135°12'0 0.0
2017-Sep-16 02:28N 34°41' E 135°12'0 0.0
2017-Sep-16 01:58N 34°41' E 135°12'0 0.0
2017-Sep-16 01:28N 34°41' E 135°12'0 0.0
2017-Sep-16 00:58N 34°41' E 135°12'0 0.0
2017-Sep-16 00:28N 34°41' E 135°12'0 0.0
2017-Sep-15 23:58N 34°41' E 135°12'0 0.0
2017-Sep-15 23:28N 34°41' E 135°12'0 0.0
2017-Sep-15 22:52N 34°41' E 135°12'0 0.0
2017-Sep-15 22:28N 34°41' E 135°12'0 0.0
2017-Sep-15 21:58N 34°41' E 135°12'0 0.0
2017-Sep-15 21:28N 34°41' E 135°12'0 0.0
2017-Sep-15 20:58N 34°41' E 135°12'0 0.0
2017-Sep-15 20:28N 34°41' E 135°12'0 0.0
2017-Sep-15 19:58N 34°41' E 135°12'0 0.0
2017-Sep-15 19:28N 34°41' E 135°12'0 0.0
2017-Sep-15 18:58N 34°41' E 135°12'0 0.0
2017-Sep-15 18:28N 34°41' E 135°12'0 0.0
2017-Sep-15 17:58N 34°41' E 135°12'0 0.0
2017-Sep-15 17:28N 34°41' E 135°12'0 0.0
2017-Sep-15 16:58N 34°41' E 135°12'0 0.0
2017-Sep-15 16:28N 34°41' E 135°12'0 0.0
2017-Sep-15 15:58N 34°41' E 135°12'0 0.0
2017-Sep-15 15:28N 34°41' E 135°12'0 0.0
2017-Sep-15 14:58N 34°41' E 135°12'0 0.0
2017-Sep-15 14:28N 34°41' E 135°12'0 0.0
2017-Sep-15 13:58N 34°41' E 135°12'0 0.0
2017-Sep-15 13:28N 34°41' E 135°12'0 0.0
2017-Sep-15 12:58N 34°41' E 135°12'0 0.0
2017-Sep-15 12:28N 34°41' E 135°12'0 0.0
2017-Sep-15 11:58N 34°41' E 135°12'0 0.0
2017-Sep-15 11:28N 34°41' E 135°12'0 0.0
2017-Sep-15 10:58N 34°41' E 135°12'0 0.0
2017-Sep-15 10:28N 34°41' E 135°12'0 0.0
2017-Sep-15 09:52N 34°41' E 135°12'0 0.0
2017-Sep-15 09:28N 34°41' E 135°12'0 0.0
2017-Sep-15 08:58N 34°41' E 135°12'0 0.0
2017-Sep-15 08:28N 34°41' E 135°12'0 0.0
2017-Sep-15 07:52N 34°41' E 135°12'0 0.0
2017-Sep-15 07:28N 34°41' E 135°12'0 1.1
2017-Sep-15 07:00N 34°41' E 135°12'511.0
2017-Sep-15 06:30N 34°35' E 135°11'612.2
2017-Sep-15 06:00N 34°29' E 135°11'611.4
2017-Sep-15 05:30N 34°24' E 135°12'2 0.4
2017-Sep-15 00:14N 34°25' E 135°14'0 1.2
2017-Sep-14 23:59N 34°25' E 135°14'3 6.1
2017-Sep-14 23:30N 34°25' E 135°11'611.5
2017-Sep-14 23:00N 34°29' E 135°16'5 9.2
2017-Sep-14 22:30N 34°31' E 135°21'0 0.3
2017-Sep-14 21:59N 34°31' E 135°21'0 0.0
2017-Sep-14 21:29N 34°31' E 135°21'0 0.0
2017-Sep-14 20:59N 34°31' E 135°21'0 0.0
2017-Sep-14 20:29N 34°31' E 135°21'0 0.0
2017-Sep-14 19:59N 34°31' E 135°21'0 0.0
2017-Sep-14 19:29N 34°31' E 135°21'0 0.0
2017-Sep-14 18:59N 34°31' E 135°21'0 0.0
2017-Sep-14 18:23N 34°31' E 135°21'0 0.0
2017-Sep-14 17:59N 34°31' E 135°21'0 0.1
2017-Sep-14 17:23N 34°31' E 135°21'0 0.1
2017-Sep-14 16:59N 34°31' E 135°21'0 0.0
2017-Sep-14 16:29N 34°31' E 135°21'0 0.0
2017-Sep-14 15:59N 34°31' E 135°21'  

Dump ship's entire track history